Adel, Georgia
Current Conditions -  °F | °C
As of 11:58 AM on Thursday 27 Nov 2014 (Local Time) from KVAD Reporting Station
Clear Clear  
Wind Chill: 57°   Ceiling: Unl
Heat Index: 57°   Visibility: 10mi
Dew Point: 33°   Wind: 18mph
Humidity: 41%   Direction: 300°WNW
Pressure: 30.28"   Gusts: 25mph
Location:  31.14°N, 83.42°W
Report Text: KVAD 271658Z AUTO 30016G22KT 10SM CLR 14/01 A3028 RMK AO2 SLP257 T01370005 $
Loading
Personal Weather Stations






























Interactive Weather Map New forecast layout! Learn more

10-Day Weather Forecast

Advertisements
Track Severe Weather on mobile